METAR Data
IDs: Format: Raw Decoded Include TAF

Data at: 0541 UTC 19 Aug 2019

KELD 190453Z AUTO 17003KT 10SM CLR 26/24 A2996 RMK AO2 SLP143 T02610244
KELD 190353Z AUTO 12003KT 10SM CLR 27/24 A2996 RMK AO2 SLP142 T02720244
KELD 190253Z AUTO 17004KT 10SM CLR 28/24 A2993 RMK AO2 SLP132 T02830244 53018
KELD 190153Z AUTO 11004KT 10SM CLR 28/26 A2992 RMK AO2 SLP126 T02780261
KELD 190053Z AUTO 11004KT 10SM CLR 29/26 A2988 RMK AO2 SLP115 T02940261
KELD 182353Z AUTO 14005KT 10SM CLR 33/24 A2988 RMK AO2 SLP114 T03280244 10356 20322 58015
KELD 182253Z AUTO 11004KT 10SM CLR 32/25 A2989 RMK AO2 SLP118 T03220250
KELD 182153Z AUTO 14009KT 10SM FEW060 BKN075 33/24 A2992 RMK AO2 SLP128 T03330239
KELD 182053Z AUTO 26005KT 10SM FEW049 SCT060 34/23 A2992 RMK AO2 SLP128 T03390233 56014
KELD 181953Z AUTO 23004KT 10SM SCT049 34/23 A2992 RMK AO2 SLP128 T03390233
KELD 181853Z AUTO 26007KT 10SM SCT043 BKN060 33/24 A2994 RMK AO2 SLP135 T03330239
KELD 181753Z AUTO VRB05KT 10SM FEW040 33/24 A2996 RMK AO2 SLP142 T03330239 10339 20239 50001
KELD 181653Z AUTO 24009G15KT 10SM FEW031 32/24 A2997 RMK AO2 SLP146 T03220244
KELD 181553Z AUTO 21010G17KT 10SM FEW029 32/24 A2997 RMK AO2 SLP143 T03170244
KELD 181453Z AUTO 19012KT 10SM FEW017 30/26 A2996 RMK AO2 SLP141 T03000256 51010
KELD 181353Z AUTO 19009KT 10SM FEW013 FEW120 28/26 A2995 RMK AO2 SLP139 T02780256
KELD 181253Z AUTO 18007KT 10SM CLR 26/25 A2995 RMK AO2 SLP137 T02560250
KELD 181153Z AUTO 18005KT 9SM CLR 24/24 A2993 RMK AO2 SLP131 T02390239 10250 20233 53006
KELD 181053Z AUTO 16003KT 10SM CLR 24/24 A2993 RMK AO2 SLP130 T02390239
KELD 180953Z AUTO 17004KT 10SM CLR 24/23 A2991 RMK AO2 SLP125 T02390233
KELD 180853Z AUTO 16003KT 10SM CLR 24/23 A2991 RMK AO2 SLP124 T02390233 57001
KELD 180753Z AUTO 00000KT 10SM CLR 24/23 A2992 RMK AO2 SLP127 T02390228
KELD 180653Z AUTO 16004KT 10SM CLR 24/23 A2991 RMK AO2 SLP125 T02390228
KELD 180553Z AUTO 15005KT 10SM CLR 25/22 A2992 RMK AO2 SLP127 T02500222 10333 20244 403610206 50007
KELD 180453Z AUTO 15004KT 10SM CLR 25/22 A2993 RMK AO2 SLP130 T02500222
KELD 180353Z AUTO 13003KT 10SM CLR 26/23 A2992 RMK AO2 SLP127 T02560228
KELD 180253Z AUTO 00000KT 10SM CLR 26/23 A2990 RMK AO2 SLP119 T02610233 51009
KELD 180153Z AUTO 18007KT 10SM CLR 27/23 A2989 RMK AO2 SLP118 T02720233
KELD 180120Z AUTO 18014G19KT 10SM FEW065 28/23 A2989 RMK AO2 T02830233
KELD 180111Z AUTO 17012KT 2 1/2SM HZ FEW065 29/23 A2989 RMK AO2 T02890233
KELD 180053Z AUTO 18010KT 10SM FEW065 31/23 A2989 RMK AO2 SLP117 T03110228
KELD 180046Z AUTO 14004KT 2SM HZ CLR 31/22 A2987 RMK AO2 LTG DSNT SW T03110222
KELD 172353Z AUTO 12006KT 10SM CLR 33/22 A2987 RMK AO2 SLP111 T03330222 10361 20333 55002
KELD 172348Z AUTO 12006KT 2 1/2SM HZ CLR 33/22 A2987 RMK AO2
KELD 172253Z AUTO 11007KT 9SM CLR 34/23 A2987 RMK AO2 SLP110 T03440228
KELD 172153Z AUTO 14005KT 10SM CLR 36/22 A2988 RMK AO2 SLP113 T03560217
KELD 172053Z AUTO 16008KT 10SM FEW050 36/23 A2989 RMK AO2 SLP116 T03560233 56019
KELD 171953Z AUTO 18004KT 10SM FEW049 34/23 A2990 RMK AO2 SLP121 T03440228
KELD 171853Z AUTO 16007KT 10SM SCT048 34/24 A2992 RMK AO2 SLP128 T03440239
KELD 171753Z AUTO 18005KT 10SM FEW041 34/24 A2994 RMK AO2 SLP135 T03390244 10339 20211 58009